createdAt,value
2019-03-30T00:00:43.568Z,7.72
2019-03-30T00:01:43.552Z,7.73
2019-03-30T00:02:43.588Z,7.72
2019-03-30T00:03:43.562Z,7.72
2019-03-30T00:04:43.555Z,7.69
2019-03-30T00:05:43.599Z,7.72
2019-03-30T00:06:43.532Z,7.73
2019-03-30T00:07:43.494Z,7.70
2019-03-30T00:08:43.475Z,7.70
2019-03-30T00:09:43.491Z,7.67
2019-03-30T00:10:43.576Z,7.66
2019-03-30T00:11:43.496Z,7.58
2019-03-30T00:12:43.453Z,7.56
2019-03-30T00:13:43.455Z,7.54
2019-03-30T00:14:43.427Z,7.53
2019-03-30T00:15:43.406Z,7.48
2019-03-30T00:16:43.466Z,7.50
2019-03-30T00:17:43.404Z,7.53
2019-03-30T00:18:43.442Z,7.48
2019-03-30T00:19:43.481Z,7.48
2019-03-30T00:20:43.399Z,7.57
2019-03-30T00:21:43.380Z,7.56
2019-03-30T00:22:43.351Z,7.53
2019-03-30T00:23:43.394Z,7.54
2019-03-30T00:24:43.327Z,7.63
2019-03-30T00:25:43.436Z,7.56
2019-03-30T00:26:43.340Z,7.61
2019-03-30T00:27:43.332Z,7.67
2019-03-30T00:28:43.341Z,7.72
2019-03-30T00:29:43.400Z,7.77
2019-03-30T00:30:43.295Z,7.66
2019-03-30T00:31:43.285Z,7.67
2019-03-30T00:32:43.387Z,7.72
2019-03-30T00:33:43.283Z,7.83
2019-03-30T00:34:43.259Z,7.75
2019-03-30T00:35:43.244Z,7.88
2019-03-30T00:36:43.259Z,7.80
2019-03-30T00:37:43.296Z,7.79
2019-03-30T00:38:43.215Z,7.85
2019-03-30T00:39:43.250Z,7.83
2019-03-30T00:40:43.225Z,7.69
2019-03-30T00:41:43.184Z,7.83
2019-03-30T00:42:43.189Z,7.75
2019-03-30T00:43:43.185Z,7.72
2019-03-30T00:44:43.200Z,7.72
2019-03-30T00:45:43.411Z,7.73
2019-03-30T00:46:43.128Z,7.67
2019-03-30T00:47:43.160Z,7.66
2019-03-30T00:48:43.130Z,7.73
2019-03-30T00:49:49.103Z,7.48
2019-03-30T00:50:43.087Z,7.63
2019-03-30T00:51:43.243Z,7.60
2019-03-30T00:52:43.236Z,7.56
2019-03-30T00:53:43.061Z,7.47
2019-03-30T00:54:43.058Z,7.54
2019-03-30T00:55:43.207Z,7.48
2019-03-30T00:56:43.031Z,7.51
2019-03-30T00:57:43.075Z,7.50
2019-03-30T00:58:43.052Z,7.35
2019-03-30T00:59:42.995Z,7.32
2019-03-30T01:00:43.002Z,7.39
2019-03-30T01:01:42.984Z,7.47
2019-03-30T01:02:42.966Z,7.40
2019-03-30T01:03:43.008Z,7.36
2019-03-30T01:04:42.956Z,7.35
2019-03-30T01:05:42.983Z,7.36
2019-03-30T01:06:42.972Z,7.35
2019-03-30T01:07:42.932Z,7.38
2019-03-30T01:08:42.969Z,7.33
2019-03-30T01:09:42.937Z,7.32
2019-03-30T01:10:42.949Z,7.39
2019-03-30T01:11:42.923Z,7.33
2019-03-30T01:12:42.888Z,7.35
2019-03-30T01:13:42.884Z,7.25
2019-03-30T01:14:42.873Z,7.32
2019-03-30T01:15:42.864Z,7.32
2019-03-30T01:16:42.844Z,7.17
2019-03-30T01:17:42.828Z,7.24
2019-03-30T01:18:42.826Z,7.23
2019-03-30T01:19:42.813Z,7.23
2019-03-30T01:20:42.820Z,7.24
2019-03-30T01:21:42.792Z,7.13
2019-03-30T01:22:42.781Z,7.29
2019-03-30T01:23:42.769Z,7.20
2019-03-30T01:24:42.761Z,7.24
2019-03-30T01:25:42.749Z,7.17
2019-03-30T01:26:42.739Z,7.17
2019-03-30T01:27:42.732Z,7.07
2019-03-30T01:28:42.719Z,7.07
2019-03-30T01:29:42.713Z,7.11
2019-03-30T01:30:42.713Z,7.06
2019-03-30T01:31:42.703Z,7.14
2019-03-30T01:32:42.692Z,7.06
2019-03-30T01:33:42.674Z,7.07
2019-03-30T01:34:42.665Z,7.00
2019-03-30T01:35:42.661Z,7.17
2019-03-30T01:36:42.644Z,7.11
2019-03-30T01:37:42.638Z,7.18
2019-03-30T01:38:42.623Z,7.02
2019-03-30T01:39:42.615Z,7.13
2019-03-30T01:40:42.610Z,7.10
2019-03-30T01:41:42.596Z,7.06
2019-03-30T01:42:42.669Z,7.10
2019-03-30T01:43:42.578Z,7.17
2019-03-30T01:44:42.567Z,7.00
2019-03-30T01:45:42.556Z,7.05
2019-03-30T01:46:42.564Z,7.03
2019-03-30T01:47:42.539Z,7.15
2019-03-30T01:48:42.529Z,7.15
2019-03-30T01:49:42.519Z,7.15
2019-03-30T01:50:42.506Z,7.17
2019-03-30T01:51:42.510Z,7.18
2019-03-30T01:52:42.489Z,7.18
2019-03-30T01:53:42.480Z,7.17
2019-03-30T01:54:42.529Z,7.20
2019-03-30T01:55:42.471Z,7.13
2019-03-30T01:56:42.450Z,7.18
2019-03-30T01:57:42.442Z,7.17
2019-03-30T01:58:42.433Z,7.15
2019-03-30T01:59:42.424Z,7.13
2019-03-30T02:00:42.418Z,6.99
2019-03-30T02:01:42.404Z,7.07
2019-03-30T02:02:42.394Z,7.06
2019-03-30T02:03:42.382Z,7.10
2019-03-30T02:04:42.377Z,7.13
2019-03-30T02:05:42.381Z,7.10
2019-03-30T02:06:42.405Z,7.00
2019-03-30T02:07:42.341Z,7.15
2019-03-30T02:08:42.334Z,7.10
2019-03-30T02:09:42.329Z,7.14
2019-03-30T02:10:42.317Z,7.17
2019-03-30T02:11:42.308Z,7.14
2019-03-30T02:12:42.296Z,7.10
2019-03-30T02:13:42.285Z,7.03
2019-03-30T02:14:42.282Z,7.02
2019-03-30T02:15:42.269Z,7.05
2019-03-30T02:16:42.256Z,7.06
2019-03-30T02:17:42.245Z,7.03
2019-03-30T02:18:42.244Z,7.03
2019-03-30T02:19:42.227Z,7.05
2019-03-30T02:20:42.216Z,6.96
2019-03-30T02:21:42.207Z,6.88
2019-03-30T02:22:42.195Z,6.97
2019-03-30T02:23:42.187Z,6.99
2019-03-30T02:24:42.181Z,7.02
2019-03-30T02:25:42.168Z,6.92
2019-03-30T02:26:42.156Z,6.88
2019-03-30T02:27:42.157Z,6.93
2019-03-30T02:28:42.138Z,6.92
2019-03-30T02:29:42.126Z,6.89
2019-03-30T02:30:42.119Z,6.93
2019-03-30T02:31:42.109Z,6.79
2019-03-30T02:32:42.097Z,6.72
2019-03-30T02:33:42.090Z,6.72
2019-03-30T02:34:42.079Z,6.77
2019-03-30T02:35:42.066Z,6.70
2019-03-30T02:36:42.059Z,6.60
2019-03-30T02:37:42.046Z,6.62
2019-03-30T02:38:42.036Z,6.63
2019-03-30T02:39:42.029Z,6.59
2019-03-30T02:40:42.013Z,6.60
2019-03-30T02:41:42.009Z,6.56
2019-03-30T02:42:42.000Z,6.63
2019-03-30T02:43:41.993Z,6.56
2019-03-30T02:44:41.977Z,6.54
2019-03-30T02:45:41.970Z,6.59
2019-03-30T02:46:41.956Z,6.56
2019-03-30T02:47:41.948Z,6.52
2019-03-30T02:48:41.936Z,6.45
2019-03-30T02:49:42.061Z,6.60
2019-03-30T02:50:50.041Z,6.49
2019-03-30T02:51:41.905Z,6.46
2019-03-30T02:52:41.902Z,6.51
2019-03-30T02:53:41.888Z,6.54
2019-03-30T02:54:41.876Z,6.48
2019-03-30T02:55:41.862Z,6.49
2019-03-30T02:56:41.864Z,6.51
2019-03-30T02:57:41.845Z,6.56
2019-03-30T02:58:41.837Z,6.54
2019-03-30T02:59:41.876Z,6.52
2019-03-30T03:00:41.814Z,6.54
2019-03-30T03:01:41.806Z,6.54
2019-03-30T03:02:41.792Z,6.52
2019-03-30T03:03:41.784Z,6.54
2019-03-30T03:04:41.769Z,6.51
2019-03-30T03:05:41.768Z,6.49
2019-03-30T03:06:41.754Z,6.46
2019-03-30T03:07:41.739Z,6.38
2019-03-30T03:08:41.731Z,6.36
2019-03-30T03:09:41.728Z,6.41
2019-03-30T03:10:41.729Z,6.49
2019-03-30T03:11:41.700Z,6.44
2019-03-30T03:12:41.698Z,6.46
2019-03-30T03:13:41.682Z,6.38
2019-03-30T03:14:41.702Z,6.44
2019-03-30T03:15:41.661Z,6.42
2019-03-30T03:16:41.659Z,6.39
2019-03-30T03:17:41.649Z,6.46
2019-03-30T03:18:41.629Z,6.46
2019-03-30T03:19:41.619Z,6.52
2019-03-30T03:20:41.610Z,6.52
2019-03-30T03:21:41.607Z,6.41
2019-03-30T03:22:41.587Z,6.41
2019-03-30T03:23:41.579Z,6.42
2019-03-30T03:24:41.569Z,6.45
2019-03-30T03:25:41.568Z,6.39
2019-03-30T03:26:41.545Z,6.45
2019-03-30T03:27:41.532Z,6.45
2019-03-30T03:28:41.533Z,6.42
2019-03-30T03:29:43.579Z,6.36
2019-03-30T03:30:41.515Z,6.45
2019-03-30T03:31:41.498Z,6.38
2019-03-30T03:32:41.488Z,6.35
2019-03-30T03:33:41.487Z,6.44
2019-03-30T03:34:41.465Z,6.38
2019-03-30T03:35:41.457Z,6.39
2019-03-30T03:36:41.467Z,6.38
2019-03-30T03:37:45.213Z,6.41
2019-03-30T03:38:41.424Z,6.31
2019-03-30T03:39:41.413Z,6.33
2019-03-30T03:40:41.405Z,6.33
2019-03-30T03:41:41.396Z,6.28
2019-03-30T03:42:41.405Z,6.38
2019-03-30T03:43:41.368Z,6.39
2019-03-30T03:44:41.363Z,6.31
2019-03-30T03:45:41.426Z,6.31
2019-03-30T03:46:41.340Z,6.30
2019-03-30T03:47:41.334Z,6.28
2019-03-30T03:48:41.324Z,6.31
2019-03-30T03:49:41.309Z,6.28
2019-03-30T03:50:41.298Z,6.33
2019-03-30T03:51:41.291Z,6.30
2019-03-30T03:52:41.278Z,6.31
2019-03-30T03:53:41.277Z,6.24
2019-03-30T03:54:41.262Z,6.30
2019-03-30T03:55:41.253Z,6.24
2019-03-30T03:56:41.241Z,6.31
2019-03-30T03:57:41.234Z,6.28
2019-03-30T03:58:41.214Z,6.24
2019-03-30T03:59:41.206Z,6.31
2019-03-30T04:00:41.207Z,6.31
2019-03-30T04:01:41.185Z,6.31
2019-03-30T04:02:41.176Z,6.27
2019-03-30T04:03:41.173Z,6.38
2019-03-30T04:04:41.154Z,6.38
2019-03-30T04:05:41.148Z,6.30
2019-03-30T04:06:41.142Z,6.19
2019-03-30T04:07:41.135Z,6.24
2019-03-30T04:08:41.123Z,6.27
2019-03-30T04:09:41.111Z,6.22
2019-03-30T04:10:41.092Z,6.26
2019-03-30T04:11:41.096Z,6.27
2019-03-30T04:12:41.076Z,6.24
2019-03-30T04:13:41.062Z,6.16
2019-03-30T04:14:41.060Z,6.20
2019-03-30T04:15:41.041Z,6.20
2019-03-30T04:16:41.036Z,6.22
2019-03-30T04:17:41.026Z,6.19
2019-03-30T04:18:41.014Z,6.20
2019-03-30T04:19:41.005Z,6.20
2019-03-30T04:20:40.992Z,6.26
2019-03-30T04:21:44.216Z,6.17
2019-03-30T04:22:41.038Z,6.22
2019-03-30T04:23:40.961Z,6.17
2019-03-30T04:24:40.953Z,6.22
2019-03-30T04:25:40.944Z,6.14
2019-03-30T04:26:40.934Z,6.22
2019-03-30T04:27:40.915Z,6.24
2019-03-30T04:28:40.908Z,6.26
2019-03-30T04:29:40.907Z,6.24
2019-03-30T04:30:40.889Z,6.16
2019-03-30T04:31:40.877Z,6.17
2019-03-30T04:32:40.867Z,6.14
2019-03-30T04:33:40.867Z,6.14
2019-03-30T04:34:40.850Z,6.09
2019-03-30T04:35:40.843Z,6.12
2019-03-30T04:36:40.840Z,6.14
2019-03-30T04:37:40.815Z,6.04
2019-03-30T04:38:40.807Z,6.01
2019-03-30T04:39:40.793Z,6.08
2019-03-30T04:40:40.869Z,5.99
2019-03-30T04:41:40.773Z,6.08
2019-03-30T04:42:40.761Z,6.08
2019-03-30T04:43:40.753Z,5.99
2019-03-30T04:44:40.741Z,5.99
2019-03-30T04:45:40.724Z,5.99
2019-03-30T04:46:40.723Z,5.97
2019-03-30T04:47:40.725Z,5.89
2019-03-30T04:48:40.698Z,5.93
2019-03-30T04:49:40.689Z,5.90
2019-03-30T04:50:40.677Z,5.93
2019-03-30T04:51:40.681Z,5.90
2019-03-30T04:52:40.656Z,5.90
2019-03-30T04:53:40.649Z,5.90
2019-03-30T04:54:40.634Z,5.99
2019-03-30T04:55:40.625Z,5.93
2019-03-30T04:56:40.610Z,5.80
2019-03-30T04:57:40.601Z,5.87
2019-03-30T04:58:40.589Z,5.86
2019-03-30T04:59:40.598Z,5.84
2019-03-30T05:00:40.577Z,5.90
2019-03-30T05:01:40.561Z,5.80
2019-03-30T05:02:40.550Z,5.86
2019-03-30T05:03:40.537Z,5.72
2019-03-30T05:04:40.529Z,5.72
2019-03-30T05:05:43.109Z,5.73
2019-03-30T05:06:40.510Z,5.75
2019-03-30T05:07:40.495Z,5.73
2019-03-30T05:08:40.487Z,5.79
2019-03-30T05:09:40.479Z,5.73
2019-03-30T05:10:40.463Z,5.79
2019-03-30T05:11:40.453Z,5.76
2019-03-30T05:12:40.442Z,5.76
2019-03-30T05:13:40.437Z,5.73
2019-03-30T05:14:40.420Z,5.75
2019-03-30T05:15:40.410Z,5.76
2019-03-30T05:16:40.401Z,5.75
2019-03-30T05:17:47.418Z,5.75
2019-03-30T05:18:40.379Z,5.76
2019-03-30T05:19:40.369Z,5.75
2019-03-30T05:20:40.363Z,5.76
2019-03-30T05:21:40.346Z,5.80
2019-03-30T05:22:40.334Z,5.73
2019-03-30T05:23:40.325Z,5.73
2019-03-30T05:24:40.323Z,5.72
2019-03-30T05:25:40.378Z,5.75
2019-03-30T05:26:40.291Z,5.73
2019-03-30T05:27:40.279Z,5.66
2019-03-30T05:28:40.270Z,5.72
2019-03-30T05:29:40.267Z,5.72
2019-03-30T05:30:40.248Z,5.65
2019-03-30T05:31:40.238Z,5.66
2019-03-30T05:32:41.749Z,5.68
2019-03-30T05:33:40.230Z,5.68
2019-03-30T05:34:40.208Z,5.69
2019-03-30T05:35:40.205Z,5.64
2019-03-30T05:36:40.185Z,5.61
2019-03-30T05:37:40.174Z,5.71
2019-03-30T05:38:40.161Z,5.69
2019-03-30T05:39:40.154Z,5.73
2019-03-30T05:40:40.162Z,5.66
2019-03-30T05:41:40.137Z,5.68
2019-03-30T05:42:40.117Z,5.68
2019-03-30T05:43:40.111Z,5.73
2019-03-30T05:44:40.098Z,5.65
2019-03-30T05:45:40.095Z,5.76
2019-03-30T05:46:40.084Z,5.75
2019-03-30T05:47:40.081Z,5.79
2019-03-30T05:48:40.055Z,5.80
2019-03-30T05:49:40.045Z,5.83
2019-03-30T05:50:40.036Z,5.84
2019-03-30T05:51:40.029Z,5.93
2019-03-30T05:52:40.017Z,5.83
2019-03-30T05:53:40.004Z,5.84
2019-03-30T05:54:39.992Z,5.93
2019-03-30T05:55:39.979Z,5.89
2019-03-30T05:56:39.969Z,5.93
2019-03-30T05:57:39.960Z,5.93
2019-03-30T05:58:39.948Z,5.86
2019-03-30T05:59:39.941Z,5.97
2019-03-30T06:00:39.929Z,5.97
2019-03-30T06:01:39.923Z,5.91
2019-03-30T06:02:39.936Z,5.91
2019-03-30T06:03:39.896Z,5.91
2019-03-30T06:04:39.895Z,5.90
2019-03-30T06:05:39.876Z,5.94
2019-03-30T06:06:39.865Z,5.93
2019-03-30T06:07:39.852Z,5.90
2019-03-30T06:08:39.841Z,5.93
2019-03-30T06:09:39.832Z,5.90
2019-03-30T06:10:39.824Z,5.86
2019-03-30T06:11:39.810Z,5.94
2019-03-30T06:12:39.805Z,5.93
2019-03-30T06:13:39.788Z,5.91
2019-03-30T06:14:39.785Z,5.93
2019-03-30T06:15:39.765Z,5.98
2019-03-30T06:16:39.756Z,5.93
2019-03-30T06:17:39.749Z,6.05
2019-03-30T06:18:39.739Z,6.08
2019-03-30T06:19:39.725Z,6.05
2019-03-30T06:20:39.724Z,6.02
2019-03-30T06:21:39.707Z,6.01
2019-03-30T06:22:40.773Z,6.02
2019-03-30T06:23:39.683Z,6.08
2019-03-30T06:24:39.678Z,6.11
2019-03-30T06:25:39.661Z,6.14
2019-03-30T06:26:39.649Z,6.04
2019-03-30T06:27:39.639Z,6.12
2019-03-30T06:28:39.632Z,6.12
2019-03-30T06:29:39.621Z,6.12
2019-03-30T06:30:39.602Z,6.11
2019-03-30T06:31:39.601Z,6.11
2019-03-30T06:32:39.586Z,6.14
2019-03-30T06:33:39.588Z,6.16
2019-03-30T06:34:39.563Z,6.19
2019-03-30T06:35:39.556Z,6.24
2019-03-30T06:36:39.547Z,6.17
2019-03-30T06:37:39.534Z,6.26
2019-03-30T06:38:39.518Z,6.26
2019-03-30T06:39:39.509Z,6.22
2019-03-30T06:40:39.502Z,6.22
2019-03-30T06:41:39.493Z,6.19
2019-03-30T06:42:39.477Z,6.28
2019-03-30T06:43:39.471Z,6.20
2019-03-30T06:44:39.464Z,6.20
2019-03-30T06:45:39.452Z,6.20
2019-03-30T06:46:39.782Z,6.24
2019-03-30T06:47:39.430Z,6.26
2019-03-30T06:48:39.416Z,6.28
2019-03-30T06:49:39.410Z,6.17
2019-03-30T06:50:39.395Z,6.26
2019-03-30T06:51:39.387Z,6.26
2019-03-30T06:52:42.729Z,6.20
2019-03-30T06:53:39.364Z,6.28
2019-03-30T06:54:39.354Z,6.31
2019-03-30T06:55:39.348Z,6.26
2019-03-30T06:56:39.335Z,6.26
2019-03-30T06:57:39.322Z,6.39
2019-03-30T06:58:39.312Z,6.35
2019-03-30T06:59:39.303Z,6.38
2019-03-30T07:00:39.292Z,6.31
2019-03-30T07:01:39.284Z,6.33
2019-03-30T07:02:39.270Z,6.41
2019-03-30T07:03:39.259Z,6.39
2019-03-30T07:04:39.249Z,6.49
2019-03-30T07:05:39.245Z,6.60
2019-03-30T07:06:39.227Z,6.60
2019-03-30T07:07:39.219Z,6.59
2019-03-30T07:08:39.207Z,6.66
2019-03-30T07:09:39.197Z,6.70
2019-03-30T07:10:39.188Z,6.72
2019-03-30T07:11:39.176Z,6.87
2019-03-30T07:12:39.166Z,6.82
2019-03-30T07:13:39.158Z,6.82
2019-03-30T07:14:39.146Z,6.82
2019-03-30T07:15:39.180Z,6.87
2019-03-30T07:16:39.141Z,6.95
2019-03-30T07:17:39.117Z,6.96
2019-03-30T07:18:39.109Z,6.99
2019-03-30T07:19:39.097Z,7.02
2019-03-30T07:20:39.092Z,7.05
2019-03-30T07:21:39.079Z,7.06
2019-03-30T07:22:39.069Z,7.10
2019-03-30T07:23:39.057Z,7.05
2019-03-30T07:24:39.048Z,7.18
2019-03-30T07:25:39.039Z,7.18
2019-03-30T07:26:39.053Z,7.18
2019-03-30T07:27:39.016Z,7.21
2019-03-30T07:28:39.007Z,7.25
2019-03-30T07:29:38.997Z,7.31
2019-03-30T07:30:38.986Z,7.31
2019-03-30T07:31:38.978Z,7.33
2019-03-30T07:32:38.977Z,7.36
2019-03-30T07:33:38.958Z,7.43
2019-03-30T07:34:41.548Z,7.38
2019-03-30T07:35:38.944Z,7.47
2019-03-30T07:36:38.924Z,7.47
2019-03-30T07:37:38.918Z,7.53
2019-03-30T07:38:38.911Z,7.54
2019-03-30T07:39:38.899Z,7.56
2019-03-30T07:40:38.892Z,7.57
2019-03-30T07:41:38.879Z,7.66
2019-03-30T07:42:38.895Z,7.70
2019-03-30T07:43:38.866Z,7.66
2019-03-30T07:44:38.861Z,7.85
2019-03-30T07:45:38.842Z,7.77
2019-03-30T07:46:38.856Z,7.85
2019-03-30T07:47:38.822Z,7.97
2019-03-30T07:48:38.812Z,7.97
2019-03-30T07:49:38.803Z,8.00
2019-03-30T07:50:38.796Z,8.03
2019-03-30T07:51:38.784Z,8.09
2019-03-30T07:52:38.772Z,8.08
2019-03-30T07:53:44.606Z,8.15
2019-03-30T07:54:38.758Z,8.23
2019-03-30T07:55:38.747Z,8.20
2019-03-30T07:56:38.735Z,8.24
2019-03-30T07:57:38.728Z,8.33
2019-03-30T07:58:38.720Z,8.33
2019-03-30T07:59:38.710Z,8.38
2019-03-30T08:00:38.701Z,8.41
2019-03-30T08:01:38.691Z,8.45
2019-03-30T08:02:38.683Z,8.45
2019-03-30T08:03:38.675Z,8.51
2019-03-30T08:04:38.690Z,8.53
2019-03-30T08:05:38.655Z,8.56
2019-03-30T08:06:38.648Z,8.58
2019-03-30T08:07:38.639Z,8.58
2019-03-30T08:08:38.628Z,8.67
2019-03-30T08:09:38.633Z,8.71
2019-03-30T08:10:38.627Z,8.78
2019-03-30T08:11:38.598Z,8.84
2019-03-30T08:12:38.593Z,8.84
2019-03-30T08:13:38.589Z,8.79
2019-03-30T08:14:38.574Z,8.88
2019-03-30T08:15:38.567Z,9.00
2019-03-30T08:16:38.553Z,9.00
2019-03-30T08:17:38.546Z,9.08
2019-03-30T08:18:38.538Z,9.16
2019-03-30T08:19:38.531Z,9.16
2019-03-30T08:20:38.553Z,9.21
2019-03-30T08:21:38.511Z,9.29
2019-03-30T08:22:38.503Z,9.28
2019-03-30T08:23:40.650Z,9.39
2019-03-30T08:24:38.491Z,9.47
2019-03-30T08:25:38.477Z,9.47
2019-03-30T08:26:38.475Z,9.51
2019-03-30T08:27:38.465Z,9.59
2019-03-30T08:28:38.455Z,9.65
2019-03-30T08:29:38.446Z,9.62
2019-03-30T08:30:38.439Z,9.69
2019-03-30T08:31:38.431Z,9.83
2019-03-30T08:32:38.416Z,9.86
2019-03-30T08:33:38.416Z,9.84
2019-03-30T08:34:38.408Z,9.92
2019-03-30T08:35:38.395Z,9.98
2019-03-30T08:36:38.387Z,10.04
2019-03-30T08:37:38.375Z,10.02
2019-03-30T08:38:38.371Z,10.12
2019-03-30T08:39:38.365Z,10.17
2019-03-30T08:40:38.355Z,10.30
2019-03-30T08:41:38.348Z,10.19
2019-03-30T08:42:38.339Z,10.34
2019-03-30T08:43:38.333Z,10.30
2019-03-30T08:44:38.324Z,10.35
2019-03-30T08:45:38.318Z,10.54
2019-03-30T08:46:38.314Z,10.51
2019-03-30T08:47:38.305Z,10.67
2019-03-30T08:48:38.294Z,10.64
2019-03-30T08:49:38.288Z,10.75
2019-03-30T08:50:38.277Z,10.75
2019-03-30T08:51:38.271Z,10.84
2019-03-30T08:52:38.268Z,10.84
2019-03-30T08:53:38.256Z,11.00
2019-03-30T08:54:38.247Z,10.89
2019-03-30T08:55:38.244Z,11.00
2019-03-30T08:56:38.239Z,11.02
2019-03-30T08:57:38.225Z,11.08
2019-03-30T08:58:38.228Z,11.22
2019-03-30T08:59:38.214Z,11.36
2019-03-30T09:00:38.219Z,11.40
2019-03-30T09:01:38.203Z,11.48
2019-03-30T09:02:38.197Z,11.55
2019-03-30T09:03:38.186Z,11.57
2019-03-30T09:04:38.179Z,11.68
2019-03-30T09:05:38.172Z,11.80
2019-03-30T09:06:38.164Z,11.81
2019-03-30T09:07:38.160Z,11.90
2019-03-30T09:08:38.153Z,11.83
2019-03-30T09:09:38.143Z,12.04
2019-03-30T09:10:38.139Z,12.12
2019-03-30T09:11:38.128Z,12.13
2019-03-30T09:12:38.124Z,12.18
2019-03-30T09:13:38.118Z,12.21
2019-03-30T09:14:38.113Z,12.31
2019-03-30T09:15:38.106Z,12.37
2019-03-30T09:16:38.099Z,12.43
2019-03-30T09:17:38.099Z,12.49
2019-03-30T09:18:38.085Z,12.54
2019-03-30T09:19:38.080Z,12.62
2019-03-30T09:20:38.074Z,12.68
2019-03-30T09:21:38.067Z,12.72
2019-03-30T09:22:38.065Z,12.80
2019-03-30T09:23:38.057Z,12.80
2019-03-30T09:24:38.055Z,12.93
2019-03-30T09:25:38.045Z,12.94
2019-03-30T09:26:38.036Z,13.05
2019-03-30T09:27:38.034Z,13.00
2019-03-30T09:28:38.032Z,13.04
2019-03-30T09:29:38.022Z,13.16
2019-03-30T09:30:38.017Z,13.11
2019-03-30T09:31:38.009Z,13.18
2019-03-30T09:32:38.029Z,13.25
2019-03-30T09:33:37.997Z,13.35
2019-03-30T09:34:37.993Z,13.42
2019-03-30T09:35:37.992Z,13.52
2019-03-30T09:36:38.016Z,13.56
2019-03-30T09:37:37.976Z,13.60
2019-03-30T09:38:37.977Z,13.68
2019-03-30T09:39:37.964Z,13.75
2019-03-30T09:40:37.960Z,13.83
2019-03-30T09:41:37.955Z,13.81
2019-03-30T09:42:37.947Z,13.95
2019-03-30T09:43:37.943Z,13.97
2019-03-30T09:44:37.954Z,14.05
2019-03-30T09:45:37.955Z,14.11
2019-03-30T09:46:37.928Z,14.10
2019-03-30T09:47:37.929Z,14.18
2019-03-30T09:48:37.917Z,14.30
2019-03-30T09:49:37.924Z,14.30
2019-03-30T09:50:37.905Z,14.37
2019-03-30T09:51:37.919Z,14.41
2019-03-30T09:52:37.978Z,14.45
2019-03-30T09:53:37.984Z,14.53
2019-03-30T09:54:37.903Z,14.54
2019-03-30T09:55:37.890Z,14.55
2019-03-30T09:56:37.883Z,14.55
2019-03-30T09:57:37.873Z,14.54
2019-03-30T09:58:37.872Z,14.63
2019-03-30T09:59:37.868Z,14.63
2019-03-30T10:00:37.885Z,14.69
2019-03-30T10:01:37.859Z,14.72
2019-03-30T10:02:37.852Z,14.79
2019-03-30T10:03:37.847Z,14.85
2019-03-30T10:04:37.843Z,14.88
2019-03-30T10:05:37.840Z,14.94
2019-03-30T10:06:37.830Z,15.00
2019-03-30T10:07:37.831Z,14.96
2019-03-30T10:08:37.828Z,15.04
2019-03-30T10:09:37.823Z,15.09
2019-03-30T10:10:37.819Z,15.15
2019-03-30T10:11:37.824Z,15.22
2019-03-30T10:12:37.871Z,15.25
2019-03-30T10:13:37.811Z,15.17
2019-03-30T10:14:37.806Z,15.31
2019-03-30T10:15:37.800Z,15.29
2019-03-30T10:16:37.792Z,15.31
2019-03-30T10:17:37.792Z,15.37
2019-03-30T10:18:37.788Z,15.36
2019-03-30T10:19:37.787Z,15.44
2019-03-30T10:20:37.780Z,15.46
2019-03-30T10:21:37.784Z,15.43
2019-03-30T10:22:37.777Z,15.49
2019-03-30T10:23:37.776Z,15.57
2019-03-30T10:24:38.674Z,15.54
2019-03-30T10:25:37.758Z,15.58
2019-03-30T10:26:37.756Z,15.68
2019-03-30T10:27:37.753Z,15.72
2019-03-30T10:28:37.764Z,15.82
2019-03-30T10:29:37.756Z,15.82
2019-03-30T10:30:37.741Z,15.77
2019-03-30T10:31:37.740Z,15.88
2019-03-30T10:32:37.732Z,15.90
2019-03-30T10:33:37.731Z,15.82
2019-03-30T10:34:39.687Z,15.91
2019-03-30T10:35:37.735Z,15.91
2019-03-30T10:36:37.747Z,15.90
2019-03-30T10:37:37.729Z,15.95
2019-03-30T10:38:37.713Z,15.90
2019-03-30T10:39:37.710Z,15.98
2019-03-30T10:40:37.708Z,16.02
2019-03-30T10:41:37.704Z,16.04
2019-03-30T10:42:37.723Z,16.04
2019-03-30T10:43:37.695Z,16.09
2019-03-30T10:44:37.697Z,16.04
2019-03-30T10:45:37.694Z,16.09
2019-03-30T10:46:37.744Z,16.09
2019-03-30T10:47:37.724Z,16.05
2019-03-30T10:48:37.681Z,16.13
2019-03-30T10:49:37.677Z,16.23
2019-03-30T10:50:37.673Z,16.13
2019-03-30T10:51:37.674Z,16.16
2019-03-30T10:52:37.666Z,16.15
2019-03-30T10:53:37.674Z,16.15
2019-03-30T10:54:51.657Z,16.12
2019-03-30T10:55:37.660Z,16.20
2019-03-30T10:56:37.657Z,16.13
2019-03-30T10:57:37.653Z,16.13
2019-03-30T10:58:37.651Z,16.13
2019-03-30T10:59:37.648Z,16.24
2019-03-30T11:00:37.644Z,16.23
2019-03-30T11:01:37.642Z,16.20
2019-03-30T11:02:37.647Z,16.21
2019-03-30T11:03:37.632Z,16.21
2019-03-30T11:04:37.829Z,16.24
2019-03-30T11:05:37.719Z,16.39
2019-03-30T11:06:37.626Z,16.35
2019-03-30T11:07:37.622Z,16.42
2019-03-30T11:08:37.619Z,16.38
2019-03-30T11:09:37.617Z,16.51
2019-03-30T11:10:37.611Z,16.50
2019-03-30T11:11:37.612Z,16.56
2019-03-30T11:12:37.604Z,16.60
2019-03-30T11:13:37.605Z,16.68
2019-03-30T11:14:37.604Z,16.60
2019-03-30T11:15:37.600Z,16.60
2019-03-30T11:16:37.596Z,16.65
2019-03-30T11:17:37.604Z,16.69
2019-03-30T11:18:37.634Z,16.81
2019-03-30T11:19:37.586Z,16.75
2019-03-30T11:20:37.580Z,16.76
2019-03-30T11:21:37.592Z,16.83
2019-03-30T11:22:37.580Z,16.83
2019-03-30T11:23:37.579Z,16.79
2019-03-30T11:24:37.587Z,16.79
2019-03-30T11:25:37.572Z,16.93
2019-03-30T11:26:37.579Z,16.93
2019-03-30T11:27:37.565Z,16.99
2019-03-30T11:28:37.562Z,16.94
2019-03-30T11:29:37.566Z,16.99
2019-03-30T11:30:37.563Z,17.04
2019-03-30T11:31:37.558Z,17.02
2019-03-30T11:32:37.559Z,17.08
2019-03-30T11:33:37.555Z,17.09
2019-03-30T11:34:37.553Z,17.11
2019-03-30T11:35:37.558Z,17.16
2019-03-30T11:36:37.550Z,17.22
2019-03-30T11:37:37.544Z,17.19
2019-03-30T11:38:37.542Z,17.27
2019-03-30T11:39:37.553Z,17.22
2019-03-30T11:40:37.575Z,17.22
2019-03-30T11:41:37.531Z,17.24
2019-03-30T11:42:37.539Z,17.33
2019-03-30T11:43:37.534Z,17.36
2019-03-30T11:44:37.525Z,17.27
2019-03-30T11:45:37.539Z,17.36
2019-03-30T11:46:37.523Z,17.48
2019-03-30T11:47:37.518Z,17.49
2019-03-30T11:48:37.902Z,17.48
2019-03-30T11:49:37.514Z,17.44
2019-03-30T11:50:37.510Z,17.45
2019-03-30T11:51:37.508Z,17.52
2019-03-30T11:52:37.505Z,17.46
2019-03-30T11:53:37.511Z,17.51
2019-03-30T11:54:37.502Z,17.54
2019-03-30T11:55:37.501Z,17.52
2019-03-30T11:56:37.500Z,17.54
2019-03-30T11:57:37.501Z,17.51
2019-03-30T11:58:37.495Z,17.56
2019-03-30T11:59:37.494Z,17.54
2019-03-30T12:00:37.491Z,17.56
2019-03-30T12:01:37.544Z,17.54
2019-03-30T12:02:37.494Z,17.56
2019-03-30T12:03:37.487Z,17.46
2019-03-30T12:04:37.486Z,17.51
2019-03-30T12:05:37.481Z,17.63
2019-03-30T12:06:37.650Z,17.64
2019-03-30T12:07:38.388Z,17.67
2019-03-30T12:08:37.480Z,17.57
2019-03-30T12:09:38.390Z,17.68
2019-03-30T12:10:37.468Z,17.65
2019-03-30T12:11:37.526Z,17.65
2019-03-30T12:12:37.757Z,17.76
2019-03-30T12:13:37.463Z,17.71
2019-03-30T12:14:37.463Z,17.70
2019-03-30T12:15:37.462Z,17.78
2019-03-30T12:16:37.598Z,17.74
2019-03-30T12:17:40.836Z,17.80
2019-03-30T12:18:38.357Z,17.70
2019-03-30T12:19:37.857Z,17.85
2019-03-30T12:20:37.458Z,17.79
2019-03-30T12:21:37.454Z,17.87
2019-03-30T12:22:37.672Z,17.95
2019-03-30T12:23:37.580Z,17.95
2019-03-30T12:24:37.651Z,17.94
2019-03-30T12:25:37.465Z,17.90
2019-03-30T12:26:37.444Z,18.03
2019-03-30T12:27:37.443Z,18.01
2019-03-30T12:28:37.501Z,18.03
2019-03-30T12:29:37.452Z,18.00
2019-03-30T12:30:37.436Z,18.04
2019-03-30T12:31:37.436Z,18.10
2019-03-30T12:32:37.448Z,18.11
2019-03-30T12:33:38.393Z,18.05
2019-03-30T12:34:37.623Z,18.04
2019-03-30T12:35:37.485Z,18.13
2019-03-30T12:36:37.432Z,18.07
2019-03-30T12:37:37.447Z,18.07
2019-03-30T12:38:37.434Z,18.08
2019-03-30T12:39:37.419Z,18.18
2019-03-30T12:40:37.424Z,18.11
2019-03-30T12:41:37.440Z,18.05
2019-03-30T12:42:37.427Z,18.13
2019-03-30T12:43:39.013Z,18.07
2019-03-30T12:44:37.435Z,18.15
2019-03-30T12:45:37.413Z,18.13
2019-03-30T12:46:37.449Z,18.11
2019-03-30T12:47:37.428Z,18.10
2019-03-30T12:48:37.410Z,18.20
2019-03-30T12:49:37.420Z,18.22
2019-03-30T12:50:37.402Z,18.23
2019-03-30T12:51:37.410Z,18.26
2019-03-30T12:52:37.404Z,18.25
2019-03-30T12:53:49.439Z,18.25
2019-03-30T12:54:37.400Z,18.26
2019-03-30T12:55:48.585Z,18.28
2019-03-30T12:56:37.400Z,18.29
2019-03-30T12:57:37.396Z,18.35
2019-03-30T12:58:37.394Z,18.35
2019-03-30T12:59:37.405Z,18.35
2019-03-30T13:00:37.411Z,18.37
2019-03-30T13:01:37.389Z,18.37
2019-03-30T13:02:37.394Z,18.37
2019-03-30T13:03:37.391Z,18.40
2019-03-30T13:04:37.383Z,18.37
2019-03-30T13:05:37.397Z,18.41
2019-03-30T13:06:37.403Z,18.45
2019-03-30T13:07:37.381Z,18.45
2019-03-30T13:08:37.439Z,18.44
2019-03-30T13:09:37.593Z,18.50